sensor_id;sensor_type;location;lat;lon;timestamp;P1;durP1;ratioP1;P2;durP2;ratioP2
7813;SDS011;3952;48.364;16.022;2023-03-01T00:01:02;23.30;;;15.00;;
7813;SDS011;3952;48.364;16.022;2023-03-01T00:03:30;23.17;;;14.57;;
7813;SDS011;3952;48.364;16.022;2023-03-01T00:05:58;23.20;;;14.43;;
7813;SDS011;3952;48.364;16.022;2023-03-01T00:08:25;23.80;;;14.37;;
7813;SDS011;3952;48.364;16.022;2023-03-01T00:10:59;25.23;;;15.07;;
7813;SDS011;3952;48.364;16.022;2023-03-01T00:13:29;21.53;;;14.40;;
7813;SDS011;3952;48.364;16.022;2023-03-01T00:15:57;26.80;;;14.43;;
7813;SDS011;3952;48.364;16.022;2023-03-01T00:18:24;20.67;;;14.63;;
7813;SDS011;3952;48.364;16.022;2023-03-01T00:20:52;26.03;;;15.53;;
7813;SDS011;3952;48.364;16.022;2023-03-01T00:23:20;23.10;;;15.03;;
7813;SDS011;3952;48.364;16.022;2023-03-01T00:25:48;22.43;;;14.80;;
7813;SDS011;3952;48.364;16.022;2023-03-01T00:28:17;24.47;;;15.63;;
7813;SDS011;3952;48.364;16.022;2023-03-01T00:30:45;26.03;;;15.63;;
7813;SDS011;3952;48.364;16.022;2023-03-01T00:33:12;26.60;;;14.87;;
7813;SDS011;3952;48.364;16.022;2023-03-01T00:35:40;23.47;;;15.03;;
7813;SDS011;3952;48.364;16.022;2023-03-01T00:38:07;22.97;;;14.67;;
7813;SDS011;3952;48.364;16.022;2023-03-01T00:40:35;22.27;;;14.07;;
7813;SDS011;3952;48.364;16.022;2023-03-01T00:43:03;21.97;;;14.03;;
7813;SDS011;3952;48.364;16.022;2023-03-01T00:45:32;22.63;;;14.17;;
7813;SDS011;3952;48.364;16.022;2023-03-01T00:48:00;23.57;;;13.50;;
7813;SDS011;3952;48.364;16.022;2023-03-01T00:50:27;18.30;;;12.63;;
7813;SDS011;3952;48.364;16.022;2023-03-01T00:52:55;24.47;;;14.43;;
7813;SDS011;3952;48.364;16.022;2023-03-01T00:55:22;18.90;;;12.67;;
7813;SDS011;3952;48.364;16.022;2023-03-01T00:57:50;20.43;;;13.87;;
7813;SDS011;3952;48.364;16.022;2023-03-01T01:00:18;18.63;;;13.13;;
7813;SDS011;3952;48.364;16.022;2023-03-01T01:02:47;19.20;;;13.47;;
7813;SDS011;3952;48.364;16.022;2023-03-01T01:05:15;19.60;;;12.63;;
7813;SDS011;3952;48.364;16.022;2023-03-01T01:07:46;18.87;;;13.17;;
7813;SDS011;3952;48.364;16.022;2023-03-01T01:10:14;19.53;;;13.73;;
7813;SDS011;3952;48.364;16.022;2023-03-01T01:12:43;22.67;;;14.33;;
7813;SDS011;3952;48.364;16.022;2023-03-01T01:15:11;18.67;;;12.83;;
7813;SDS011;3952;48.364;16.022;2023-03-01T01:17:41;20.53;;;13.87;;
7813;SDS011;3952;48.364;16.022;2023-03-01T01:20:11;23.90;;;14.07;;
7813;SDS011;3952;48.364;16.022;2023-03-01T01:22:38;22.17;;;14.53;;
7813;SDS011;3952;48.364;16.022;2023-03-01T01:25:05;22.23;;;14.43;;
7813;SDS011;3952;48.364;16.022;2023-03-01T01:27:33;21.83;;;14.50;;
7813;SDS011;3952;48.364;16.022;2023-03-01T01:30:00;25.87;;;14.63;;
7813;SDS011;3952;48.364;16.022;2023-03-01T01:32:28;24.33;;;14.53;;
7813;SDS011;3952;48.364;16.022;2023-03-01T01:34:55;26.57;;;16.40;;
7813;SDS011;3952;48.364;16.022;2023-03-01T01:37:24;25.77;;;14.27;;
7813;SDS011;3952;48.364;16.022;2023-03-01T01:39:56;23.10;;;14.33;;
7813;SDS011;3952;48.364;16.022;2023-03-01T01:42:24;22.83;;;13.57;;
7813;SDS011;3952;48.364;16.022;2023-03-01T01:48:03;25.07;;;14.83;;
7813;SDS011;3952;48.364;16.022;2023-03-01T01:50:37;30.80;;;15.97;;
7813;SDS011;3952;48.364;16.022;2023-03-01T01:53:09;25.27;;;15.60;;
7813;SDS011;3952;48.364;16.022;2023-03-01T01:55:39;23.23;;;15.20;;
7813;SDS011;3952;48.364;16.022;2023-03-01T01:58:10;26.90;;;16.23;;
7813;SDS011;3952;48.364;16.022;2023-03-01T02:00:40;29.27;;;17.73;;
7813;SDS011;3952;48.364;16.022;2023-03-01T02:03:10;24.87;;;15.33;;
7813;SDS011;3952;48.364;16.022;2023-03-01T02:05:44;30.60;;;16.20;;
7813;SDS011;3952;48.364;16.022;2023-03-01T02:08:18;29.57;;;16.87;;
7813;SDS011;3952;48.364;16.022;2023-03-01T02:10:52;22.60;;;14.97;;
7813;SDS011;3952;48.364;16.022;2023-03-01T02:13:22;28.87;;;16.63;;
7813;SDS011;3952;48.364;16.022;2023-03-01T02:15:49;28.17;;;15.77;;
7813;SDS011;3952;48.364;16.022;2023-03-01T02:18:17;24.20;;;15.30;;
7813;SDS011;3952;48.364;16.022;2023-03-01T02:20:49;26.73;;;15.97;;
7813;SDS011;3952;48.364;16.022;2023-03-01T02:23:26;28.43;;;15.53;;
7813;SDS011;3952;48.364;16.022;2023-03-01T02:25:57;27.07;;;15.67;;
7813;SDS011;3952;48.364;16.022;2023-03-01T02:28:32;28.87;;;15.80;;
7813;SDS011;3952;48.364;16.022;2023-03-01T02:31:00;25.03;;;15.13;;
7813;SDS011;3952;48.364;16.022;2023-03-01T02:33:46;24.27;;;15.87;;
7813;SDS011;3952;48.364;16.022;2023-03-01T02:36:15;23.30;;;14.97;;
7813;SDS011;3952;48.364;16.022;2023-03-01T02:38:45;25.53;;;15.00;;
7813;SDS011;3952;48.364;16.022;2023-03-01T02:41:14;23.43;;;14.87;;
7813;SDS011;3952;48.364;16.022;2023-03-01T02:43:45;30.93;;;16.20;;
7813;SDS011;3952;48.364;16.022;2023-03-01T02:46:16;25.23;;;15.43;;
7813;SDS011;3952;48.364;16.022;2023-03-01T02:48:46;27.03;;;16.23;;
7813;SDS011;3952;48.364;16.022;2023-03-01T02:51:26;30.00;;;17.63;;
7813;SDS011;3952;48.364;16.022;2023-03-01T02:54:10;31.67;;;17.73;;
7813;SDS011;3952;48.364;16.022;2023-03-01T02:56:44;29.23;;;17.87;;
7813;SDS011;3952;48.364;16.022;2023-03-01T02:59:15;30.83;;;17.97;;
7813;SDS011;3952;48.364;16.022;2023-03-01T03:01:45;34.77;;;18.57;;
7813;SDS011;3952;48.364;16.022;2023-03-01T03:04:13;36.13;;;18.43;;
7813;SDS011;3952;48.364;16.022;2023-03-01T03:06:43;32.37;;;18.27;;
7813;SDS011;3952;48.364;16.022;2023-03-01T03:09:11;32.77;;;17.80;;
7813;SDS011;3952;48.364;16.022;2023-03-01T03:11:39;35.53;;;18.50;;
7813;SDS011;3952;48.364;16.022;2023-03-01T03:14:07;30.37;;;18.03;;
7813;SDS011;3952;48.364;16.022;2023-03-01T03:16:40;34.07;;;18.90;;
7813;SDS011;3952;48.364;16.022;2023-03-01T03:19:09;36.07;;;18.37;;
7813;SDS011;3952;48.364;16.022;2023-03-01T03:21:36;34.87;;;19.03;;
7813;SDS011;3952;48.364;16.022;2023-03-01T03:24:03;36.30;;;18.70;;
7813;SDS011;3952;48.364;16.022;2023-03-01T03:26:31;32.30;;;18.67;;
7813;SDS011;3952;48.364;16.022;2023-03-01T03:28:58;32.70;;;19.23;;
7813;SDS011;3952;48.364;16.022;2023-03-01T03:31:25;32.37;;;18.57;;
7813;SDS011;3952;48.364;16.022;2023-03-01T03:33:54;32.90;;;18.67;;
7813;SDS011;3952;48.364;16.022;2023-03-01T03:36:24;34.00;;;19.00;;
7813;SDS011;3952;48.364;16.022;2023-03-01T03:38:51;29.47;;;17.67;;
7813;SDS011;3952;48.364;16.022;2023-03-01T03:41:19;34.60;;;19.27;;
7813;SDS011;3952;48.364;16.022;2023-03-01T03:43:46;32.57;;;18.17;;
7813;SDS011;3952;48.364;16.022;2023-03-01T03:46:14;32.93;;;19.37;;
7813;SDS011;3952;48.364;16.022;2023-03-01T03:48:42;32.37;;;19.00;;
7813;SDS011;3952;48.364;16.022;2023-03-01T03:51:12;35.50;;;19.67;;
7813;SDS011;3952;48.364;16.022;2023-03-01T03:53:41;37.77;;;20.87;;
7813;SDS011;3952;48.364;16.022;2023-03-01T03:56:09;37.73;;;20.50;;
7813;SDS011;3952;48.364;16.022;2023-03-01T03:58:37;33.43;;;19.53;;
7813;SDS011;3952;48.364;16.022;2023-03-01T04:01:04;35.13;;;20.07;;
7813;SDS011;3952;48.364;16.022;2023-03-01T04:03:32;36.17;;;19.60;;
7813;SDS011;3952;48.364;16.022;2023-03-01T04:06:01;36.37;;;20.10;;
7813;SDS011;3952;48.364;16.022;2023-03-01T04:08:30;42.30;;;21.33;;
7813;SDS011;3952;48.364;16.022;2023-03-01T04:10:58;38.70;;;21.40;;
7813;SDS011;3952;48.364;16.022;2023-03-01T04:13:47;39.80;;;21.03;;
7813;SDS011;3952;48.364;16.022;2023-03-01T04:16:15;40.60;;;21.90;;
7813;SDS011;3952;48.364;16.022;2023-03-01T04:18:42;42.73;;;22.00;;
7813;SDS011;3952;48.364;16.022;2023-03-01T04:21:10;39.00;;;21.30;;
7813;SDS011;3952;48.364;16.022;2023-03-01T04:23:39;36.20;;;20.60;;
7813;SDS011;3952;48.364;16.022;2023-03-01T04:26:07;42.13;;;21.70;;
7813;SDS011;3952;48.364;16.022;2023-03-01T04:28:36;34.40;;;19.93;;
7813;SDS011;3952;48.364;16.022;2023-03-01T04:31:06;40.30;;;22.10;;
7813;SDS011;3952;48.364;16.022;2023-03-01T04:33:39;39.40;;;21.13;;
7813;SDS011;3952;48.364;16.022;2023-03-01T04:36:08;40.93;;;22.37;;
7813;SDS011;3952;48.364;16.022;2023-03-01T04:38:36;42.47;;;21.30;;
7813;SDS011;3952;48.364;16.022;2023-03-01T04:41:06;40.17;;;22.67;;
7813;SDS011;3952;48.364;16.022;2023-03-01T04:43:36;43.10;;;22.63;;
7813;SDS011;3952;48.364;16.022;2023-03-01T04:46:03;51.30;;;23.30;;
7813;SDS011;3952;48.364;16.022;2023-03-01T04:48:34;48.30;;;23.60;;
7813;SDS011;3952;48.364;16.022;2023-03-01T04:51:02;50.87;;;24.20;;
7813;SDS011;3952;48.364;16.022;2023-03-01T04:53:30;54.40;;;25.07;;
7813;SDS011;3952;48.364;16.022;2023-03-01T04:55:58;45.50;;;24.77;;
7813;SDS011;3952;48.364;16.022;2023-03-01T04:58:27;48.47;;;23.87;;
7813;SDS011;3952;48.364;16.022;2023-03-01T05:00:55;48.93;;;24.00;;
7813;SDS011;3952;48.364;16.022;2023-03-01T05:03:22;48.43;;;24.13;;
7813;SDS011;3952;48.364;16.022;2023-03-01T05:05:50;42.97;;;23.43;;
7813;SDS011;3952;48.364;16.022;2023-03-01T05:08:18;50.87;;;23.20;;
7813;SDS011;3952;48.364;16.022;2023-03-01T05:10:47;44.50;;;23.07;;
7813;SDS011;3952;48.364;16.022;2023-03-01T05:13:16;43.83;;;23.67;;
7813;SDS011;3952;48.364;16.022;2023-03-01T05:15:49;39.00;;;21.77;;
7813;SDS011;3952;48.364;16.022;2023-03-01T05:18:21;46.67;;;23.37;;
7813;SDS011;3952;48.364;16.022;2023-03-01T05:20:51;40.27;;;22.47;;
7813;SDS011;3952;48.364;16.022;2023-03-01T05:23:18;44.23;;;23.43;;
7813;SDS011;3952;48.364;16.022;2023-03-01T05:25:45;42.37;;;22.97;;
7813;SDS011;3952;48.364;16.022;2023-03-01T05:28:12;40.47;;;22.07;;
7813;SDS011;3952;48.364;16.022;2023-03-01T05:30:40;45.70;;;23.83;;
7813;SDS011;3952;48.364;16.022;2023-03-01T05:33:10;41.93;;;23.10;;
7813;SDS011;3952;48.364;16.022;2023-03-01T05:35:39;39.07;;;22.13;;
7813;SDS011;3952;48.364;16.022;2023-03-01T05:38:08;42.43;;;22.83;;
7813;SDS011;3952;48.364;16.022;2023-03-01T05:40:38;37.90;;;22.27;;
7813;SDS011;3952;48.364;16.022;2023-03-01T05:43:05;35.93;;;21.70;;
7813;SDS011;3952;48.364;16.022;2023-03-01T05:45:33;40.07;;;21.57;;
7813;SDS011;3952;48.364;16.022;2023-03-01T05:48:03;36.93;;;20.83;;
7813;SDS011;3952;48.364;16.022;2023-03-01T05:50:33;43.70;;;22.47;;
7813;SDS011;3952;48.364;16.022;2023-03-01T05:53:03;46.23;;;25.17;;
7813;SDS011;3952;48.364;16.022;2023-03-01T05:55:32;43.50;;;23.97;;
7813;SDS011;3952;48.364;16.022;2023-03-01T05:58:01;37.90;;;21.97;;
7813;SDS011;3952;48.364;16.022;2023-03-01T06:00:30;43.47;;;22.73;;
7813;SDS011;3952;48.364;16.022;2023-03-01T06:02:58;41.33;;;22.63;;
7813;SDS011;3952;48.364;16.022;2023-03-01T06:05:26;35.07;;;21.67;;
7813;SDS011;3952;48.364;16.022;2023-03-01T06:07:56;35.07;;;21.20;;
7813;SDS011;3952;48.364;16.022;2023-03-01T06:10:26;38.77;;;22.67;;
7813;SDS011;3952;48.364;16.022;2023-03-01T06:12:53;41.60;;;21.53;;
7813;SDS011;3952;48.364;16.022;2023-03-01T06:15:20;44.93;;;23.77;;
7813;SDS011;3952;48.364;16.022;2023-03-01T06:17:48;49.67;;;25.90;;
7813;SDS011;3952;48.364;16.022;2023-03-01T06:20:23;51.83;;;27.23;;
7813;SDS011;3952;48.364;16.022;2023-03-01T06:22:51;54.80;;;28.77;;
7813;SDS011;3952;48.364;16.022;2023-03-01T06:25:21;56.73;;;29.10;;
7813;SDS011;3952;48.364;16.022;2023-03-01T06:27:49;53.10;;;26.87;;
7813;SDS011;3952;48.364;16.022;2023-03-01T06:30:18;46.03;;;25.27;;
7813;SDS011;3952;48.364;16.022;2023-03-01T06:32:46;47.73;;;24.47;;
7813;SDS011;3952;48.364;16.022;2023-03-01T06:35:14;54.30;;;27.13;;
7813;SDS011;3952;48.364;16.022;2023-03-01T06:37:43;45.70;;;24.80;;
7813;SDS011;3952;48.364;16.022;2023-03-01T06:40:12;39.27;;;23.83;;
7813;SDS011;3952;48.364;16.022;2023-03-01T06:42:42;38.07;;;22.20;;
7813;SDS011;3952;48.364;16.022;2023-03-01T06:45:10;36.37;;;22.50;;
7813;SDS011;3952;48.364;16.022;2023-03-01T06:47:37;38.50;;;22.93;;
7813;SDS011;3952;48.364;16.022;2023-03-01T06:50:05;41.97;;;24.17;;
7813;SDS011;3952;48.364;16.022;2023-03-01T06:52:32;39.63;;;22.20;;
7813;SDS011;3952;48.364;16.022;2023-03-01T06:55:00;38.90;;;21.90;;
7813;SDS011;3952;48.364;16.022;2023-03-01T06:57:27;42.77;;;21.93;;
7813;SDS011;3952;48.364;16.022;2023-03-01T06:59:55;40.93;;;21.80;;
7813;SDS011;3952;48.364;16.022;2023-03-01T07:02:23;39.17;;;22.90;;
7813;SDS011;3952;48.364;16.022;2023-03-01T07:04:51;43.80;;;22.63;;
7813;SDS011;3952;48.364;16.022;2023-03-01T07:07:19;43.67;;;22.13;;
7813;SDS011;3952;48.364;16.022;2023-03-01T07:09:46;36.20;;;20.83;;
7813;SDS011;3952;48.364;16.022;2023-03-01T07:12:15;38.27;;;22.13;;
7813;SDS011;3952;48.364;16.022;2023-03-01T07:14:43;36.90;;;22.07;;
7813;SDS011;3952;48.364;16.022;2023-03-01T07:17:12;41.13;;;23.63;;
7813;SDS011;3952;48.364;16.022;2023-03-01T07:19:39;35.83;;;23.23;;
7813;SDS011;3952;48.364;16.022;2023-03-01T07:22:06;35.53;;;21.13;;
7813;SDS011;3952;48.364;16.022;2023-03-01T07:24:34;37.13;;;21.90;;
7813;SDS011;3952;48.364;16.022;2023-03-01T07:27:01;36.77;;;22.17;;
7813;SDS011;3952;48.364;16.022;2023-03-01T07:29:29;39.00;;;22.33;;
7813;SDS011;3952;48.364;16.022;2023-03-01T07:31:56;40.57;;;22.30;;
7813;SDS011;3952;48.364;16.022;2023-03-01T07:34:25;43.80;;;22.17;;
7813;SDS011;3952;48.364;16.022;2023-03-01T07:36:52;32.77;;;21.10;;
7813;SDS011;3952;48.364;16.022;2023-03-01T07:39:19;45.80;;;24.43;;
7813;SDS011;3952;48.364;16.022;2023-03-01T07:41:48;43.27;;;23.63;;
7813;SDS011;3952;48.364;16.022;2023-03-01T07:44:15;40.93;;;22.93;;
7813;SDS011;3952;48.364;16.022;2023-03-01T07:46:42;35.50;;;22.30;;
7813;SDS011;3952;48.364;16.022;2023-03-01T07:49:10;40.33;;;22.63;;
7813;SDS011;3952;48.364;16.022;2023-03-01T07:51:38;35.40;;;20.97;;
7813;SDS011;3952;48.364;16.022;2023-03-01T07:54:07;34.77;;;21.17;;
7813;SDS011;3952;48.364;16.022;2023-03-01T07:56:34;38.27;;;21.67;;
7813;SDS011;3952;48.364;16.022;2023-03-01T07:59:02;40.73;;;22.37;;
7813;SDS011;3952;48.364;16.022;2023-03-01T08:01:29;37.17;;;21.63;;
7813;SDS011;3952;48.364;16.022;2023-03-01T08:03:56;35.10;;;20.80;;
7813;SDS011;3952;48.364;16.022;2023-03-01T08:06:24;37.13;;;21.17;;
7813;SDS011;3952;48.364;16.022;2023-03-01T08:08:52;34.17;;;20.53;;
7813;SDS011;3952;48.364;16.022;2023-03-01T08:11:20;33.30;;;20.33;;
7813;SDS011;3952;48.364;16.022;2023-03-01T08:13:48;37.23;;;21.43;;
7813;SDS011;3952;48.364;16.022;2023-03-01T08:16:15;46.90;;;23.20;;
7813;SDS011;3952;48.364;16.022;2023-03-01T08:18:43;35.87;;;21.20;;
7813;SDS011;3952;48.364;16.022;2023-03-01T08:21:11;37.77;;;21.17;;
7813;SDS011;3952;48.364;16.022;2023-03-01T08:23:43;36.43;;;20.97;;
7813;SDS011;3952;48.364;16.022;2023-03-01T08:26:13;29.13;;;19.73;;
7813;SDS011;3952;48.364;16.022;2023-03-01T08:28:42;36.83;;;21.33;;
7813;SDS011;3952;48.364;16.022;2023-03-01T08:31:16;40.10;;;21.97;;
7813;SDS011;3952;48.364;16.022;2023-03-01T08:33:45;33.83;;;21.23;;
7813;SDS011;3952;48.364;16.022;2023-03-01T08:36:16;31.50;;;20.60;;
7813;SDS011;3952;48.364;16.022;2023-03-01T08:38:46;28.57;;;19.30;;
7813;SDS011;3952;48.364;16.022;2023-03-01T08:41:15;27.77;;;19.47;;
7813;SDS011;3952;48.364;16.022;2023-03-01T08:43:42;32.53;;;20.27;;
7813;SDS011;3952;48.364;16.022;2023-03-01T08:46:10;31.57;;;19.87;;
7813;SDS011;3952;48.364;16.022;2023-03-01T08:48:38;31.53;;;21.60;;
7813;SDS011;3952;48.364;16.022;2023-03-01T08:51:09;30.37;;;20.43;;
7813;SDS011;3952;48.364;16.022;2023-03-01T08:53:43;28.10;;;19.07;;
7813;SDS011;3952;48.364;16.022;2023-03-01T08:59:02;36.27;;;22.40;;
7813;SDS011;3952;48.364;16.022;2023-03-01T09:01:29;35.37;;;22.27;;
7813;SDS011;3952;48.364;16.022;2023-03-01T09:03:57;41.10;;;23.90;;
7813;SDS011;3952;48.364;16.022;2023-03-01T09:06:24;33.33;;;20.80;;
7813;SDS011;3952;48.364;16.022;2023-03-01T09:08:52;33.83;;;21.50;;
7813;SDS011;3952;48.364;16.022;2023-03-01T09:11:20;33.60;;;20.67;;
7813;SDS011;3952;48.364;16.022;2023-03-01T09:13:49;32.43;;;20.67;;
7813;SDS011;3952;48.364;16.022;2023-03-01T09:16:17;36.17;;;20.10;;
7813;SDS011;3952;48.364;16.022;2023-03-01T09:18:48;30.97;;;19.83;;
7813;SDS011;3952;48.364;16.022;2023-03-01T09:21:16;30.73;;;20.47;;
7813;SDS011;3952;48.364;16.022;2023-03-01T09:23:46;31.77;;;20.23;;
7813;SDS011;3952;48.364;16.022;2023-03-01T09:26:15;37.07;;;22.07;;
7813;SDS011;3952;48.364;16.022;2023-03-01T09:28:46;36.17;;;21.23;;
7813;SDS011;3952;48.364;16.022;2023-03-01T09:31:16;34.53;;;21.47;;
7813;SDS011;3952;48.364;16.022;2023-03-01T09:33:45;35.40;;;21.60;;
7813;SDS011;3952;48.364;16.022;2023-03-01T09:36:15;38.67;;;21.10;;
7813;SDS011;3952;48.364;16.022;2023-03-01T09:38:43;28.87;;;20.20;;
7813;SDS011;3952;48.364;16.022;2023-03-01T09:41:15;30.33;;;19.80;;
7813;SDS011;3952;48.364;16.022;2023-03-01T09:43:55;30.43;;;20.73;;
7813;SDS011;3952;48.364;16.022;2023-03-01T09:46:30;31.97;;;20.70;;
7813;SDS011;3952;48.364;16.022;2023-03-01T09:49:09;28.20;;;19.57;;
7813;SDS011;3952;48.364;16.022;2023-03-01T09:51:42;32.43;;;20.83;;
7813;SDS011;3952;48.364;16.022;2023-03-01T09:54:14;30.10;;;21.33;;
7813;SDS011;3952;48.364;16.022;2023-03-01T09:56:42;49.17;;;23.97;;
7813;SDS011;3952;48.364;16.022;2023-03-01T09:59:17;29.50;;;20.57;;
7813;SDS011;3952;48.364;16.022;2023-03-01T10:01:52;35.33;;;19.87;;
7813;SDS011;3952;48.364;16.022;2023-03-01T10:04:28;26.20;;;18.63;;
7813;SDS011;3952;48.364;16.022;2023-03-01T10:07:05;28.40;;;20.40;;
7813;SDS011;3952;48.364;16.022;2023-03-01T10:09:44;26.20;;;18.67;;
7813;SDS011;3952;48.364;16.022;2023-03-01T10:12:14;26.70;;;19.53;;
7813;SDS011;3952;48.364;16.022;2023-03-01T10:14:47;27.03;;;19.03;;
7813;SDS011;3952;48.364;16.022;2023-03-01T10:17:26;26.93;;;19.00;;
7813;SDS011;3952;48.364;16.022;2023-03-01T10:19:59;23.53;;;18.50;;
7813;SDS011;3952;48.364;16.022;2023-03-01T10:22:42;23.13;;;17.97;;
7813;SDS011;3952;48.364;16.022;2023-03-01T10:25:12;24.37;;;18.27;;
7813;SDS011;3952;48.364;16.022;2023-03-01T10:27:46;22.43;;;17.63;;
7813;SDS011;3952;48.364;16.022;2023-03-01T10:30:19;24.23;;;18.17;;
7813;SDS011;3952;48.364;16.022;2023-03-01T10:32:56;21.83;;;17.77;;
7813;SDS011;3952;48.364;16.022;2023-03-01T10:35:26;25.73;;;18.13;;
7813;SDS011;3952;48.364;16.022;2023-03-01T10:37:58;28.03;;;19.30;;
7813;SDS011;3952;48.364;16.022;2023-03-01T10:40:31;23.87;;;18.37;;
7813;SDS011;3952;48.364;16.022;2023-03-01T10:42:59;24.77;;;18.37;;
7813;SDS011;3952;48.364;16.022;2023-03-01T10:45:32;26.93;;;18.00;;
7813;SDS011;3952;48.364;16.022;2023-03-01T10:48:04;27.07;;;17.70;;
7813;SDS011;3952;48.364;16.022;2023-03-01T10:50:37;24.53;;;17.63;;
7813;SDS011;3952;48.364;16.022;2023-03-01T10:53:08;22.23;;;16.97;;
7813;SDS011;3952;48.364;16.022;2023-03-01T10:55:56;31.60;;;18.50;;
7813;SDS011;3952;48.364;16.022;2023-03-01T10:58:28;21.40;;;15.77;;
7813;SDS011;3952;48.364;16.022;2023-03-01T11:00:57;21.07;;;16.67;;
7813;SDS011;3952;48.364;16.022;2023-03-01T11:03:29;19.90;;;14.97;;
7813;SDS011;3952;48.364;16.022;2023-03-01T11:06:01;20.60;;;15.83;;
7813;SDS011;3952;48.364;16.022;2023-03-01T11:08:32;21.07;;;16.07;;
7813;SDS011;3952;48.364;16.022;2023-03-01T11:11:03;22.07;;;15.87;;
7813;SDS011;3952;48.364;16.022;2023-03-01T11:13:32;18.57;;;14.50;;
7813;SDS011;3952;48.364;16.022;2023-03-01T11:16:00;24.63;;;14.53;;
7813;SDS011;3952;48.364;16.022;2023-03-01T11:18:30;21.37;;;14.77;;
7813;SDS011;3952;48.364;16.022;2023-03-01T11:20:58;20.60;;;14.87;;
7813;SDS011;3952;48.364;16.022;2023-03-01T11:23:28;19.87;;;15.30;;
7813;SDS011;3952;48.364;16.022;2023-03-01T11:25:58;20.83;;;14.93;;
7813;SDS011;3952;48.364;16.022;2023-03-01T11:28:28;16.33;;;14.63;;
7813;SDS011;3952;48.364;16.022;2023-03-01T11:30:57;21.23;;;14.63;;
7813;SDS011;3952;48.364;16.022;2023-03-01T11:33:33;17.20;;;14.90;;
7813;SDS011;3952;48.364;16.022;2023-03-01T11:36:07;31.53;;;14.87;;
7813;SDS011;3952;48.364;16.022;2023-03-01T11:38:40;19.90;;;13.83;;
7813;SDS011;3952;48.364;16.022;2023-03-01T11:41:08;22.73;;;14.90;;
7813;SDS011;3952;48.364;16.022;2023-03-01T11:43:42;34.67;;;16.37;;
7813;SDS011;3952;48.364;16.022;2023-03-01T11:46:38;29.90;;;15.50;;
7813;SDS011;3952;48.364;16.022;2023-03-01T11:49:29;29.10;;;17.57;;
7813;SDS011;3952;48.364;16.022;2023-03-01T11:52:18;36.50;;;22.57;;
7813;SDS011;3952;48.364;16.022;2023-03-01T11:54:55;34.83;;;20.17;;
7813;SDS011;3952;48.364;16.022;2023-03-01T11:57:42;26.77;;;16.93;;
7813;SDS011;3952;48.364;16.022;2023-03-01T12:00:22;24.20;;;14.67;;
7813;SDS011;3952;48.364;16.022;2023-03-01T12:03:23;28.93;;;17.67;;
7813;SDS011;3952;48.364;16.022;2023-03-01T12:06:12;17.83;;;14.27;;
7813;SDS011;3952;48.364;16.022;2023-03-01T12:08:55;17.30;;;14.00;;
7813;SDS011;3952;48.364;16.022;2023-03-01T12:11:41;25.17;;;15.60;;
7813;SDS011;3952;48.364;16.022;2023-03-01T12:14:31;20.47;;;15.03;;
7813;SDS011;3952;48.364;16.022;2023-03-01T12:17:12;15.90;;;13.80;;
7813;SDS011;3952;48.364;16.022;2023-03-01T12:19:54;23.50;;;15.47;;
7813;SDS011;3952;48.364;16.022;2023-03-01T12:22:40;20.53;;;13.60;;
7813;SDS011;3952;48.364;16.022;2023-03-01T12:25:20;22.87;;;15.63;;
7813;SDS011;3952;48.364;16.022;2023-03-01T12:28:04;21.77;;;14.13;;
7813;SDS011;3952;48.364;16.022;2023-03-01T12:31:04;17.33;;;13.53;;
7813;SDS011;3952;48.364;16.022;2023-03-01T12:33:54;22.87;;;15.10;;
7813;SDS011;3952;48.364;16.022;2023-03-01T12:39:38;16.53;;;13.90;;
7813;SDS011;3952;48.364;16.022;2023-03-01T12:42:20;18.00;;;13.10;;
7813;SDS011;3952;48.364;16.022;2023-03-01T12:44:56;20.27;;;13.30;;
7813;SDS011;3952;48.364;16.022;2023-03-01T12:47:42;22.33;;;15.10;;
7813;SDS011;3952;48.364;16.022;2023-03-01T12:50:25;19.40;;;13.63;;
7813;SDS011;3952;48.364;16.022;2023-03-01T12:53:03;18.30;;;13.47;;
7813;SDS011;3952;48.364;16.022;2023-03-01T12:55:33;16.83;;;13.43;;
7813;SDS011;3952;48.364;16.022;2023-03-01T12:58:07;18.57;;;14.13;;
7813;SDS011;3952;48.364;16.022;2023-03-01T13:00:52;16.60;;;12.73;;
7813;SDS011;3952;48.364;16.022;2023-03-01T13:03:36;15.90;;;13.23;;
7813;SDS011;3952;48.364;16.022;2023-03-01T13:06:15;15.07;;;12.67;;
7813;SDS011;3952;48.364;16.022;2023-03-01T13:08:48;13.67;;;11.23;;
7813;SDS011;3952;48.364;16.022;2023-03-01T13:11:22;18.23;;;14.37;;
7813;SDS011;3952;48.364;16.022;2023-03-01T13:13:51;21.20;;;12.60;;
7813;SDS011;3952;48.364;16.022;2023-03-01T13:16:21;16.93;;;12.47;;
7813;SDS011;3952;48.364;16.022;2023-03-01T13:19:06;13.93;;;12.47;;
7813;SDS011;3952;48.364;16.022;2023-03-01T13:21:39;14.40;;;12.00;;
7813;SDS011;3952;48.364;16.022;2023-03-01T13:29:56;13.53;;;11.83;;
7813;SDS011;3952;48.364;16.022;2023-03-01T13:32:29;15.47;;;12.03;;
7813;SDS011;3952;48.364;16.022;2023-03-01T13:34:58;14.43;;;12.10;;
7813;SDS011;3952;48.364;16.022;2023-03-01T13:37:27;16.07;;;12.13;;
7813;SDS011;3952;48.364;16.022;2023-03-01T13:40:00;12.00;;;10.80;;
7813;SDS011;3952;48.364;16.022;2023-03-01T13:42:54;16.40;;;11.87;;
7813;SDS011;3952;48.364;16.022;2023-03-01T13:45:23;14.27;;;11.87;;
7813;SDS011;3952;48.364;16.022;2023-03-01T13:48:00;14.63;;;12.63;;
7813;SDS011;3952;48.364;16.022;2023-03-01T13:50:32;15.40;;;12.43;;
7813;SDS011;3952;48.364;16.022;2023-03-01T13:53:05;19.03;;;13.77;;
7813;SDS011;3952;48.364;16.022;2023-03-01T13:55:37;14.03;;;11.77;;
7813;SDS011;3952;48.364;16.022;2023-03-01T13:58:16;22.70;;;14.00;;
7813;SDS011;3952;48.364;16.022;2023-03-01T14:00:54;20.23;;;14.67;;
7813;SDS011;3952;48.364;16.022;2023-03-01T14:03:26;13.33;;;11.70;;
7813;SDS011;3952;48.364;16.022;2023-03-01T14:06:02;13.20;;;11.80;;
7813;SDS011;3952;48.364;16.022;2023-03-01T14:08:33;19.67;;;14.63;;
7813;SDS011;3952;48.364;16.022;2023-03-01T14:11:09;15.07;;;12.30;;
7813;SDS011;3952;48.364;16.022;2023-03-01T14:14:06;15.07;;;12.00;;
7813;SDS011;3952;48.364;16.022;2023-03-01T14:16:55;21.50;;;13.77;;
7813;SDS011;3952;48.364;16.022;2023-03-01T14:19:29;22.70;;;14.50;;
7813;SDS011;3952;48.364;16.022;2023-03-01T14:22:02;13.97;;;12.33;;
7813;SDS011;3952;48.364;16.022;2023-03-01T14:24:44;14.07;;;12.50;;
7813;SDS011;3952;48.364;16.022;2023-03-01T14:27:15;15.70;;;13.17;;
7813;SDS011;3952;48.364;16.022;2023-03-01T14:29:47;18.30;;;13.83;;
7813;SDS011;3952;48.364;16.022;2023-03-01T14:32:23;15.10;;;13.50;;
7813;SDS011;3952;48.364;16.022;2023-03-01T14:34:53;25.50;;;15.27;;
7813;SDS011;3952;48.364;16.022;2023-03-01T14:37:22;19.43;;;14.73;;
7813;SDS011;3952;48.364;16.022;2023-03-01T14:39:51;20.87;;;15.77;;
7813;SDS011;3952;48.364;16.022;2023-03-01T14:42:19;19.57;;;15.07;;
7813;SDS011;3952;48.364;16.022;2023-03-01T14:44:51;16.00;;;13.17;;
7813;SDS011;3952;48.364;16.022;2023-03-01T14:47:23;21.00;;;15.57;;
7813;SDS011;3952;48.364;16.022;2023-03-01T14:49:55;16.73;;;13.77;;
7813;SDS011;3952;48.364;16.022;2023-03-01T14:52:26;18.27;;;14.63;;
7813;SDS011;3952;48.364;16.022;2023-03-01T14:55:02;20.13;;;15.30;;
7813;SDS011;3952;48.364;16.022;2023-03-01T14:57:32;18.17;;;13.93;;
7813;SDS011;3952;48.364;16.022;2023-03-01T15:00:02;18.97;;;14.43;;
7813;SDS011;3952;48.364;16.022;2023-03-01T15:02:33;30.87;;;17.63;;
7813;SDS011;3952;48.364;16.022;2023-03-01T15:05:02;28.77;;;16.40;;
7813;SDS011;3952;48.364;16.022;2023-03-01T15:07:33;30.47;;;17.97;;
7813;SDS011;3952;48.364;16.022;2023-03-01T15:10:03;31.77;;;18.83;;
7813;SDS011;3952;48.364;16.022;2023-03-01T15:12:34;25.73;;;17.40;;